Mona, UT (84645)

11:45 MDT le 25 juillet 2016 (GMT -0600)
Elberta | | Change Station

Alt. 4741 ft 39.94 °N, 111.96 °W | Updated 5 minutes ago

Partly Cloudy
Partiellement nuageux
95.2 ° F
Paraît 91 ° F
N
10.3
Vent Variable Vent de SSE

Aujourd'hui
Haut(e) -- | Bas -- ° F
--% Risque de précip.
Hier
Haut(e) -- | Bas -- ° F
Precip. -- pouce
Pression 30.12 pouce
Visibilité 10.0 Miles terrestres
Nuages Peu 12000 ft
indice de chaleur 91 ° F
Point de rosée 42 ° F
Humidité 16%
Précipitations 0.00 pouce
Profondeur de la couche neigeuse Non disponible.
6:20 AM 8:46 PM
Lune gibbeuse décroissante, 64% visible
METAR KPVU 251648Z 09005KT 10SM FEW120 30/03 A3012
Pression 30.12 pouce
Visibilité 10.0 Miles terrestres
Nuages Peu 12000 ft
indice de chaleur 91 ° F
Point de rosée 42 ° F
Humidité 16%
Précipitations 0.00 pouce
Profondeur de la couche neigeuse Non disponible.
6:20 AM 8:46 PM
Lune gibbeuse décroissante, 64% visible
METAR KPVU 251648Z 09005KT 10SM FEW120 30/03 A3012

10-Day Weather Forecast

Almanac

Astronomie

Jul. 25, 2016 Lever Coucher
Temps réel
Crépuscule civil
Crépuscule nautique
Crépuscule astronomique
Lune
Durée de lumière visible
Longueur du jour
Tomorrow will be .
, % of the Moon is Illuminated

Extrêmes aujourd'hui

State Highs State Lows

Community

WunderPhotos

Upload Photos

1,927,364 Photos téléchargées !

WunderBlog® & News

Nearby

Qualité de l'air

  Qualité de l'air Indice de la qualité de l'air Polluant
Not available.

Épaisseur de neige

Station Depth Altitude

Activité sismique

Ville Distance Mag. Time & Date
Minimum magnitude displayed is 2.5.

Températures des eaux côtières

Lieu Température

Stations

Stations météo à proximité

Emplacement de la station Température Refroidissement éolien Point de rosée Humidité Vent Precip. Alt. Mise à jour Type
                   

Watches & Warnings

There are currently no watches in effect.